F/V La Roumasse — FHUV — position and weather

sailwx.info

Track history (hours):
 
Tides and Currents Weather Stations Pressure Air Temp Water Temp Dewpoint Dewpoint Depression Visibility Wind Speed Wind Dir Waves Ship Positions

F/V La Roumasse

Last reported at 2018-Feb-23 10:14 UTC. Time now 2018-Feb-23 16:26 UTC.
Position N 46°17' W 001°50'.

Length 17 m; draft 3.3 m.

Type: Fishing. MMSI: 227123700.

Date/timePositionNaut miles runAvg speedWind from/ knotsBaromVisibWave heightAir tempDewpointWater temp
2018-Feb-23 10:14N 46°17' W 001°50'4 8.6
2018-Feb-23 09:43N 46°21' W 001°52'3 8.7
2018-Feb-23 09:19N 46°24' W 001°53'3 8.7
2018-Feb-23 09:00N 46°27' W 001°54'4 8.9
2018-Feb-23 08:30N 46°31' W 001°55'4 9.0
2018-Feb-23 08:00N 46°36' W 001°57'4 8.8
2018-Feb-23 07:30N 46°40' W 001°57'2 0.1
2018-Feb-21 23:40N 46°42' W 001°57'0 0.2
2018-Feb-21 23:09N 46°42' W 001°57'0 2.6
2018-Feb-21 23:01N 46°42' W 001°57'4 8.1
2018-Feb-21 22:31N 46°38' W 001°57'4 8.4
2018-Feb-21 22:01N 46°34' W 001°55'4 8.2
2018-Feb-21 21:30N 46°30' W 001°54'4 8.2
2018-Feb-21 21:00N 46°25' W 001°53'4 8.1
2018-Feb-21 20:29N 46°21' W 001°52'5 8.0
2018-Feb-21 19:54N 46°17' W 001°51'3 7.9
2018-Feb-21 19:30N 46°14' W 001°50'  
2018-Feb-18 07:52N 46°23' W 001°53'3 8.4
2018-Feb-18 07:30N 46°26' W 001°54'4 8.3
2018-Feb-18 07:01N 46°30' W 001°55'4 8.2
2018-Feb-18 06:30N 46°34' W 001°56'4 8.2
2018-Feb-18 06:00N 46°38' W 001°56'  
2018-Feb-15 03:09N 46°42' W 001°56'1 5.8
2018-Feb-15 03:00N 46°41' W 001°58'2 2.1
2018-Feb-15 02:10N 46°40' W 001°58'1 6.1
2018-Feb-15 02:00N 46°39' W 001°58'3 6.4
2018-Feb-15 01:30N 46°36' W 001°56'3 6.7
2018-Feb-15 01:00N 46°33' W 001°55'3 6.7
2018-Feb-15 00:30N 46°29' W 001°53'3 6.3
2018-Feb-15 00:00N 46°26' W 001°52'3 6.4
2018-Feb-14 23:30N 46°23' W 001°51'3 6.5
2018-Feb-14 23:00N 46°20' W 001°50'3 6.7
2018-Feb-14 22:30N 46°17' W 001°49'  
Track history (hours):
 
Tides and Currents Weather Stations Pressure Air Temp Water Temp Dewpoint Dewpoint Depression Visibility Wind Speed Wind Dir Waves Ship Positions

F/V La Roumasse

Last reported at 2018-Feb-23 10:14 UTC. Time now 2018-Feb-23 16:26 UTC.
Position N 46°17' W 001°50'.

Length 17 m; draft 3.3 m.

Type: Fishing. MMSI: 227123700.

Date/timePositionNaut miles runAvg speedWind from/ knotsBaromVisibWave heightAir tempDewpointWater temp
2018-Feb-23 10:14N 46°17' W 001°50'4 8.6
2018-Feb-23 09:43N 46°21' W 001°52'3 8.7
2018-Feb-23 09:19N 46°24' W 001°53'3 8.7
2018-Feb-23 09:00N 46°27' W 001°54'4 8.9
2018-Feb-23 08:30N 46°31' W 001°55'4 9.0
2018-Feb-23 08:00N 46°36' W 001°57'4 8.8
2018-Feb-23 07:30N 46°40' W 001°57'2 0.1
2018-Feb-21 23:40N 46°42' W 001°57'0 0.2
2018-Feb-21 23:09N 46°42' W 001°57'0 2.6
2018-Feb-21 23:01N 46°42' W 001°57'4 8.1
2018-Feb-21 22:31N 46°38' W 001°57'4 8.4
2018-Feb-21 22:01N 46°34' W 001°55'4 8.2
2018-Feb-21 21:30N 46°30' W 001°54'4 8.2
2018-Feb-21 21:00N 46°25' W 001°53'4 8.1
2018-Feb-21 20:29N 46°21' W 001°52'5 8.0
2018-Feb-21 19:54N 46°17' W 001°51'3 7.9
2018-Feb-21 19:30N 46°14' W 001°50'  
2018-Feb-18 07:52N 46°23' W 001°53'3 8.4
2018-Feb-18 07:30N 46°26' W 001°54'4 8.3
2018-Feb-18 07:01N 46°30' W 001°55'4 8.2
2018-Feb-18 06:30N 46°34' W 001°56'4 8.2
2018-Feb-18 06:00N 46°38' W 001°56'  
2018-Feb-15 03:09N 46°42' W 001°56'1 5.8
2018-Feb-15 03:00N 46°41' W 001°58'2 2.1
2018-Feb-15 02:10N 46°40' W 001°58'1 6.1
2018-Feb-15 02:00N 46°39' W 001°58'3 6.4
2018-Feb-15 01:30N 46°36' W 001°56'3 6.7
2018-Feb-15 01:00N 46°33' W 001°55'3 6.7
2018-Feb-15 00:30N 46°29' W 001°53'3 6.3
2018-Feb-15 00:00N 46°26' W 001°52'3 6.4
2018-Feb-14 23:30N 46°23' W 001°51'3 6.5
2018-Feb-14 23:00N 46°20' W 001°50'3 6.7
2018-Feb-14 22:30N 46°17' W 001°49'  

Dump ship's entire track history